Time;durP1;ratioP1;P1;durP2;ratioP2;P2;SDS_P1;SDS_P2;PMS_P1;PMS_P2;Temp;Humidity;BMP_temperature;BMP_pressure;BME280_temperature;BME280_humidity;BME280_pressure;Samples;Min_cycle;Max_cycle;Signal;HPM_P1;HPM_P2
2023/12/30 00:01:31;;;;;;;7.57;2.20;;;;;;;;;;6107483;23;20018;-89
2023/12/30 00:03:57;;;;;;;8.98;2.35;;;;;;;;;;6120097;23;20022;-88
2023/12/30 00:06:26;;;;;;;6.75;2.30;;;;;;;;;;6123735;23;20025;-89
2023/12/30 00:08:55;;;;;;;8.10;3.17;;;;;;;;;;6122177;23;20498;-88
2023/12/30 00:11:22;;;;;;;9.00;2.80;;;;;;;;;;6105667;23;20018;-88
2023/12/30 00:13:48;;;;;;;6.10;2.38;;;;;;;;;;6105571;23;20044;-88
2023/12/30 00:16:14;;;;;;;9.05;2.20;;;;;;;;;;6105629;23;20053;-88
2023/12/30 00:18:40;;;;;;;8.82;2.20;;;;;;;;;;6105892;23;20075;-88
2023/12/30 00:21:06;;;;;;;12.00;2.90;;;;;;;;;;6105725;23;20390;-88
2023/12/30 00:23:35;;;;;;;17.70;2.75;;;;;;;;;;6105801;23;20439;-89
2023/12/30 00:26:04;;;;;;;7.30;2.60;;;;;;;;;;6105505;23;20021;-88
2023/12/30 00:28:30;;;;;;;10.27;2.90;;;;;;;;;;6105306;23;20020;-88
2023/12/30 00:30:56;;;;;;;6.32;2.13;;;;;;;;;;6105454;23;20013;-88
2023/12/30 00:33:22;;;;;;;12.25;2.55;;;;;;;;;;6105743;23;20049;-89
2023/12/30 00:35:48;;;;;;;9.07;2.72;;;;;;;;;;6105110;23;20028;-88
2023/12/30 00:38:14;;;;;;;10.98;2.47;;;;;;;;;;6105810;23;20013;-88
2023/12/30 00:40:40;;;;;;;11.20;2.45;;;;;;;;;;6105305;23;20067;-88
2023/12/30 00:43:07;;;;;;;11.90;2.60;;;;;;;;;;6105093;23;20451;-88
2023/12/30 00:45:33;;;;;;;9.10;3.00;;;;;;;;;;6105408;23;20339;-88
2023/12/30 00:47:59;;;;;;;8.27;2.53;;;;;;;;;;6105510;23;20455;-88
2023/12/30 00:50:25;;;;;;;10.82;3.25;;;;;;;;;;6105597;23;20021;-88
2023/12/30 00:52:51;;;;;;;8.82;2.58;;;;;;;;;;6105361;23;20108;-88
2023/12/30 00:55:17;;;;;;;11.05;2.53;;;;;;;;;;6105309;23;20386;-88
2023/12/30 00:57:43;;;;;;;8.32;2.45;;;;;;;;;;6105455;23;20458;-88
2023/12/30 01:00:10;;;;;;;9.23;2.85;;;;;;;;;;6105369;23;20017;-88
2023/12/30 01:02:36;;;;;;;11.68;3.08;;;;;;;;;;6105332;23;20025;-88
2023/12/30 01:05:04;;;;;;;7.35;3.03;;;;;;;;;;6104597;23;20039;-88
2023/12/30 01:07:31;;;;;;;9.23;2.60;;;;;;;;;;6105382;23;20514;-88
2023/12/30 01:09:57;;;;;;;10.13;2.60;;;;;;;;;;6105160;23;20459;-88
2023/12/30 01:12:23;;;;;;;9.80;2.28;;;;;;;;;;6105339;23;20447;-88
2023/12/30 01:14:49;;;;;;;8.57;2.55;;;;;;;;;;6105154;23;20017;-88
2023/12/30 01:17:15;;;;;;;9.07;2.38;;;;;;;;;;6105275;23;20040;-88
2023/12/30 01:19:41;;;;;;;13.00;3.28;;;;;;;;;;6106166;23;20022;-88
2023/12/30 01:22:08;;;;;;;9.98;2.75;;;;;;;;;;6105344;23;20024;-88
2023/12/30 01:24:34;;;;;;;8.77;2.63;;;;;;;;;;6105532;23;20362;-88
2023/12/30 01:27:00;;;;;;;12.63;2.95;;;;;;;;;;6104830;23;20338;-87
2023/12/30 01:29:29;;;;;;;11.57;2.22;;;;;;;;;;6105143;23;20041;-87
2023/12/30 01:31:55;;;;;;;7.15;2.75;;;;;;;;;;6105630;23;20017;-88
2023/12/30 01:34:21;;;;;;;8.60;2.38;;;;;;;;;;6105386;23;20057;-88
2023/12/30 01:36:47;;;;;;;6.53;2.58;;;;;;;;;;6105055;23;20072;-87
2023/12/30 01:39:13;;;;;;;11.63;2.80;;;;;;;;;;6104833;23;20017;-88
2023/12/30 01:41:39;;;;;;;11.07;2.53;;;;;;;;;;6104838;23;20014;-87
2023/12/30 01:44:05;;;;;;;12.63;2.55;;;;;;;;;;6104795;23;20049;-88
2023/12/30 01:46:32;;;;;;;12.63;2.60;;;;;;;;;;6104584;23;20469;-88
2023/12/30 01:48:58;;;;;;;9.90;2.63;;;;;;;;;;6106148;23;20385;-88
2023/12/30 01:51:25;;;;;;;8.98;2.53;;;;;;;;;;6106095;23;20013;-88
2023/12/30 01:53:52;;;;;;;6.53;2.45;;;;;;;;;;6105278;23;20400;-87
2023/12/30 01:56:18;;;;;;;11.15;2.83;;;;;;;;;;6105184;23;20060;-88
2023/12/30 01:58:44;;;;;;;11.10;2.53;;;;;;;;;;6104606;23;20092;-87
2023/12/30 02:01:11;;;;;;;12.32;3.00;;;;;;;;;;6104959;23;20405;-88
2023/12/30 02:03:37;;;;;;;12.23;3.35;;;;;;;;;;6105074;23;20014;-88
2023/12/30 02:06:03;;;;;;;10.38;2.45;;;;;;;;;;6106070;23;20447;-88
2023/12/30 02:08:29;;;;;;;8.45;3.05;;;;;;;;;;6106927;23;20017;-88
2023/12/30 02:10:55;;;;;;;11.30;2.70;;;;;;;;;;6106963;23;20028;-88
2023/12/30 02:13:22;;;;;;;11.35;2.38;;;;;;;;;;6107005;23;20054;-88
2023/12/30 02:15:48;;;;;;;8.55;2.58;;;;;;;;;;6105655;23;20101;-89
2023/12/30 02:18:14;;;;;;;10.70;2.95;;;;;;;;;;6107574;23;20025;-88
2023/12/30 02:20:40;;;;;;;10.80;2.65;;;;;;;;;;6107126;23;20117;-88
2023/12/30 02:23:06;;;;;;;12.15;2.63;;;;;;;;;;6107160;23;20017;-88
2023/12/30 02:25:32;;;;;;;14.02;2.70;;;;;;;;;;6107072;23;20068;-88
2023/12/30 02:27:59;;;;;;;6.30;2.30;;;;;;;;;;6106714;23;20020;-88
2023/12/30 02:30:25;;;;;;;7.43;2.67;;;;;;;;;;6106987;23;20018;-88
2023/12/30 02:32:51;;;;;;;10.32;2.35;;;;;;;;;;6106828;23;20397;-88
2023/12/30 02:35:17;;;;;;;9.30;2.92;;;;;;;;;;6107151;23;20517;-89
2023/12/30 02:37:45;;;;;;;10.30;3.42;;;;;;;;;;6106861;23;20136;-87
2023/12/30 02:40:11;;;;;;;10.60;3.03;;;;;;;;;;6107333;23;20021;-87
2023/12/30 02:42:37;;;;;;;10.65;3.08;;;;;;;;;;6107168;23;20018;-88
2023/12/30 02:45:03;;;;;;;9.00;2.97;;;;;;;;;;6107275;23;20130;-88
2023/12/30 02:47:30;;;;;;;10.68;2.70;;;;;;;;;;6106880;23;20028;-88
2023/12/30 02:49:56;;;;;;;10.65;3.10;;;;;;;;;;6107005;23;20414;-88
2023/12/30 02:52:22;;;;;;;12.38;3.35;;;;;;;;;;6107122;23;20014;-88
2023/12/30 02:54:48;;;;;;;7.90;2.75;;;;;;;;;;6106876;23;20100;-88
2023/12/30 02:57:14;;;;;;;10.32;2.90;;;;;;;;;;6106886;23;20033;-89
2023/12/30 02:59:40;;;;;;;12.90;2.88;;;;;;;;;;6107142;23;20014;-87
2023/12/30 03:02:07;;;;;;;10.07;2.63;;;;;;;;;;6107017;23;20092;-88
2023/12/30 03:04:33;;;;;;;13.43;2.95;;;;;;;;;;6106746;23;20457;-88
2023/12/30 03:06:59;;;;;;;11.05;3.08;;;;;;;;;;6106777;23;20017;-87
2023/12/30 03:09:25;;;;;;;12.25;3.00;;;;;;;;;;6106694;23;20443;-88
2023/12/30 03:11:51;;;;;;;8.80;2.95;;;;;;;;;;6106855;23;20024;-87
2023/12/30 03:14:17;;;;;;;9.60;2.67;;;;;;;;;;6107257;23;20056;-88
2023/12/30 03:16:43;;;;;;;13.38;3.15;;;;;;;;;;6106691;23;20031;-88
2023/12/30 03:19:09;;;;;;;11.40;2.70;;;;;;;;;;6106796;23;20018;-88
2023/12/30 03:21:35;;;;;;;9.23;2.92;;;;;;;;;;6106660;23;20100;-88
2023/12/30 03:24:04;;;;;;;11.63;2.92;;;;;;;;;;6107061;23;20022;-88
2023/12/30 03:26:30;;;;;;;15.88;3.22;;;;;;;;;;6106166;23;20072;-88
2023/12/30 03:28:56;;;;;;;9.82;2.70;;;;;;;;;;6106368;23;20047;-87
2023/12/30 03:31:23;;;;;;;12.48;2.85;;;;;;;;;;6106886;23;20013;-88
2023/12/30 03:33:49;;;;;;;9.77;3.25;;;;;;;;;;6106930;23;20017;-88
2023/12/30 03:36:15;;;;;;;8.15;2.40;;;;;;;;;;6106704;23;20028;-88
2023/12/30 03:38:44;;;;;;;9.95;2.90;;;;;;;;;;6106278;23;20021;-88
2023/12/30 03:41:10;;;;;;;9.70;2.95;;;;;;;;;;6106633;23;20080;-88
2023/12/30 03:43:37;;;;;;;15.95;3.00;;;;;;;;;;6106366;23;20018;-88
2023/12/30 03:46:03;;;;;;;13.18;3.70;;;;;;;;;;6106845;23;20028;-87
2023/12/30 03:48:29;;;;;;;10.93;3.00;;;;;;;;;;6106392;23;20024;-87
2023/12/30 03:50:58;;;;;;;12.80;2.90;;;;;;;;;;6107086;23;20018;-87
2023/12/30 03:53:24;;;;;;;11.85;3.20;;;;;;;;;;6106908;23;20155;-88
2023/12/30 03:55:50;;;;;;;11.85;3.33;;;;;;;;;;6106636;23;20439;-87
2023/12/30 03:58:16;;;;;;;14.60;3.03;;;;;;;;;;6106479;23;20032;-88
2023/12/30 04:00:42;;;;;;;11.52;2.97;;;;;;;;;;6106692;23;20028;-88
2023/12/30 04:03:09;;;;;;;10.98;3.38;;;;;;;;;;6106085;23;20320;-88
2023/12/30 04:05:35;;;;;;;10.05;2.65;;;;;;;;;;6106540;23;20454;-87
2023/12/30 04:08:01;;;;;;;9.35;2.70;;;;;;;;;;6106008;23;20347;-88
2023/12/30 04:10:27;;;;;;;11.95;3.00;;;;;;;;;;6106505;23;20013;-87
2023/12/30 04:12:53;;;;;;;11.38;3.00;;;;;;;;;;6106204;23;20064;-87
2023/12/30 04:15:20;;;;;;;10.98;2.70;;;;;;;;;;6106221;23;20018;-87
2023/12/30 04:17:47;;;;;;;11.60;2.75;;;;;;;;;;6105837;23;20029;-87
2023/12/30 04:20:13;;;;;;;9.50;3.30;;;;;;;;;;6106130;23;20014;-88
2023/12/30 04:22:39;;;;;;;15.63;3.10;;;;;;;;;;6106151;23;20013;-87
2023/12/30 04:25:06;;;;;;;14.55;3.00;;;;;;;;;;6106504;23;20028;-88
2023/12/30 04:27:34;;;;;;;8.40;2.33;;;;;;;;;;6105511;23;20040;-88
2023/12/30 04:30:00;;;;;;;10.70;2.78;;;;;;;;;;6105893;23;20072;-87
2023/12/30 04:32:29;;;;;;;11.30;2.70;;;;;;;;;;6106524;23;20096;-87
2023/12/30 04:34:55;;;;;;;5.93;2.28;;;;;;;;;;6105771;23;20072;-87
2023/12/30 04:37:21;;;;;;;11.07;3.22;;;;;;;;;;6105844;23;20104;-88
2023/12/30 04:39:48;;;;;;;8.30;3.13;;;;;;;;;;6106575;23;20476;-88
2023/12/30 04:42:15;;;;;;;13.02;3.17;;;;;;;;;;6105709;23;20021;-87
2023/12/30 04:44:41;;;;;;;12.15;3.03;;;;;;;;;;6105533;23;20057;-88
2023/12/30 04:47:07;;;;;;;9.75;2.42;;;;;;;;;;6105229;23;20013;-88
2023/12/30 04:49:36;;;;;;;6.43;2.22;;;;;;;;;;6106371;23;20018;-87
2023/12/30 04:52:05;;;;;;;7.32;2.38;;;;;;;;;;6105767;23;20347;-88
2023/12/30 04:54:35;;;;;;;8.68;2.72;;;;;;;;;;6106169;23;20020;-88
2023/12/30 04:57:01;;;;;;;8.75;2.58;;;;;;;;;;6105596;23;20017;-87
2023/12/30 04:59:27;;;;;;;14.32;3.47;;;;;;;;;;6105652;23;20021;-87
2023/12/30 05:01:54;;;;;;;9.60;2.97;;;;;;;;;;6105633;23;20018;-87
2023/12/30 05:04:20;;;;;;;10.30;2.50;;;;;;;;;;6105550;23;20017;-87
2023/12/30 05:06:47;;;;;;;9.88;3.13;;;;;;;;;;6105698;23;20017;-87
2023/12/30 05:09:16;;;;;;;11.25;2.95;;;;;;;;;;6106244;23;20018;-88
2023/12/30 05:11:45;;;;;;;16.38;3.28;;;;;;;;;;6105581;23;20100;-88
2023/12/30 05:14:12;;;;;;;11.38;3.00;;;;;;;;;;6105807;23;20092;-88
2023/12/30 05:16:45;;;;;;;11.48;3.30;;;;;;;;;;6105526;23;20024;-88
2023/12/30 05:19:11;;;;;;;10.40;3.00;;;;;;;;;;6105363;23;20021;-88
2023/12/30 05:21:38;;;;;;;9.70;2.55;;;;;;;;;;6105626;23;20017;-87
2023/12/30 05:24:05;;;;;;;10.13;3.03;;;;;;;;;;6105626;23;20022;-88
2023/12/30 05:26:31;;;;;;;8.18;2.85;;;;;;;;;;6130527;23;20056;-88
2023/12/30 05:28:57;;;;;;;12.88;3.42;;;;;;;;;;6105995;23;20018;-87
2023/12/30 05:31:24;;;;;;;15.20;3.00;;;;;;;;;;6105297;23;20393;-87
2023/12/30 05:33:50;;;;;;;13.02;2.60;;;;;;;;;;6106419;23;20018;-87
2023/12/30 05:36:16;;;;;;;11.43;3.08;;;;;;;;;;6105849;23;20022;-87
2023/12/30 05:38:42;;;;;;;11.65;2.67;;;;;;;;;;6106061;23;20021;-88
2023/12/30 05:41:08;;;;;;;11.85;3.28;;;;;;;;;;6107759;23;20056;-87
2023/12/30 05:43:34;;;;;;;13.00;3.08;;;;;;;;;;6107699;23;20017;-88
2023/12/30 05:46:01;;;;;;;17.35;3.47;;;;;;;;;;6107435;23;20485;-88
2023/12/30 05:48:27;;;;;;;11.27;2.67;;;;;;;;;;6107485;23;20287;-87
2023/12/30 05:50:53;;;;;;;8.75;3.65;;;;;;;;;;6107349;23;20549;-88
2023/12/30 05:53:19;;;;;;;11.43;3.08;;;;;;;;;;6107245;23;20053;-87
2023/12/30 05:55:48;;;;;;;10.10;3.25;;;;;;;;;;6107670;23;20076;-87
2023/12/30 05:58:14;;;;;;;14.98;3.47;;;;;;;;;;6107266;23;20028;-87
2023/12/30 06:00:40;;;;;;;15.68;3.03;;;;;;;;;;6107332;23;20013;-87
2023/12/30 06:03:06;;;;;;;14.35;3.05;;;;;;;;;;6107251;23;20454;-88
2023/12/30 06:05:36;;;;;;;15.55;3.17;;;;;;;;;;6107752;23;20124;-87
2023/12/30 06:08:02;;;;;;;11.57;2.78;;;;;;;;;;6107249;23;20014;-88
2023/12/30 06:10:30;;;;;;;13.13;3.10;;;;;;;;;;6107527;23;20017;-87
2023/12/30 06:12:56;;;;;;;11.63;2.58;;;;;;;;;;6107752;23;20501;-88
2023/12/30 06:15:23;;;;;;;9.65;2.78;;;;;;;;;;6107816;23;20068;-87
2023/12/30 06:17:51;;;;;;;12.23;2.90;;;;;;;;;;6107767;23;20048;-87
2023/12/30 06:20:17;;;;;;;6.88;2.67;;;;;;;;;;6107917;23;20029;-87
2023/12/30 06:22:44;;;;;;;13.25;3.05;;;;;;;;;;6107461;23;20096;-87
2023/12/30 06:25:10;;;;;;;10.85;2.65;;;;;;;;;;6107901;23;20049;-87
2023/12/30 06:27:36;;;;;;;12.18;2.70;;;;;;;;;;6107815;23;20014;-87
2023/12/30 06:30:02;;;;;;;10.50;2.90;;;;;;;;;;6107955;23;20447;-87
2023/12/30 06:32:28;;;;;;;13.05;2.70;;;;;;;;;;6107402;23;20024;-87
2023/12/30 06:34:54;;;;;;;11.15;2.78;;;;;;;;;;6107798;23;20171;-86
2023/12/30 06:37:21;;;;;;;14.82;2.72;;;;;;;;;;6107009;23;20105;-87
2023/12/30 06:39:47;;;;;;;6.88;2.55;;;;;;;;;;6107249;23;20105;-87
2023/12/30 06:42:13;;;;;;;10.02;2.88;;;;;;;;;;6107161;23;20017;-88
2023/12/30 06:44:39;;;;;;;7.70;2.60;;;;;;;;;;6107386;23;20013;-89
2023/12/30 06:47:05;;;;;;;10.07;3.22;;;;;;;;;;6106544;23;20024;-88
2023/12/30 06:49:31;;;;;;;10.20;2.90;;;;;;;;;;6106630;23;20017;-87
2023/12/30 06:52:00;;;;;;;12.32;2.60;;;;;;;;;;6107084;23;20017;-87
2023/12/30 06:54:28;;;;;;;11.90;3.53;;;;;;;;;;6106472;23;20020;-87
2023/12/30 06:56:54;;;;;;;11.50;2.80;;;;;;;;;;6105992;23;20014;-89
2023/12/30 06:59:21;;;;;;;4.50;2.13;;;;;;;;;;6106660;23;20504;-89
2023/12/30 07:01:47;;;;;;;19.38;3.20;;;;;;;;;;6106509;23;20022;-89
2023/12/30 07:04:16;;;;;;;13.00;2.90;;;;;;;;;;6106538;23;20014;-89
2023/12/30 07:06:43;;;;;;;12.57;3.03;;;;;;;;;;6106248;23;20358;-88
2023/12/30 07:09:09;;;;;;;10.88;2.97;;;;;;;;;;6106353;23;20088;-89
2023/12/30 07:11:35;;;;;;;11.95;2.53;;;;;;;;;;6106340;23;20529;-88
2023/12/30 07:14:02;;;;;;;14.95;3.10;;;;;;;;;;6106319;23;20450;-88
2023/12/30 07:16:28;;;;;;;12.05;2.92;;;;;;;;;;6105886;23;20118;-88
2023/12/30 07:19:00;;;;;;;10.55;3.17;;;;;;;;;;6106890;23;20021;-89
2023/12/30 07:21:26;;;;;;;9.57;2.53;;;;;;;;;;6106023;23;20434;-89
2023/12/30 07:23:57;;;;;;;7.57;2.58;;;;;;;;;;6106429;23;20466;-89
2023/12/30 07:26:26;;;;;;;11.05;2.80;;;;;;;;;;6106204;23;20022;-89
2023/12/30 07:28:54;;;;;;;13.40;3.33;;;;;;;;;;6105705;23;20018;-87
2023/12/30 07:31:26;;;;;;;7.72;2.40;;;;;;;;;;6106310;23;20018;-89
2023/12/30 07:34:05;;;;;;;;;;;;;;;;;;;;;
2023/12/30 07:36:40;;;;;;;10.18;2.78;;;;;;;;;;6129963;23;20072;-90
2023/12/30 07:39:26;;;;;;;7.63;2.85;;;;;;;;;;6106183;23;20024;-89
2023/12/30 07:41:55;;;;;;;11.07;3.13;;;;;;;;;;6106377;23;20022;-89
2023/12/30 07:44:21;;;;;;;12.02;2.92;;;;;;;;;;6107226;23;20068;-89
2023/12/30 07:46:50;;;;;;;9.85;3.08;;;;;;;;;;6107664;23;20022;-88
2023/12/30 07:49:17;;;;;;;7.10;2.47;;;;;;;;;;6108494;23;20021;-89
2023/12/30 07:51:46;;;;;;;9.40;2.50;;;;;;;;;;6108059;23;20021;-88
2023/12/30 07:54:15;;;;;;;7.95;2.33;;;;;;;;;;6107713;23;20018;-87
2023/12/30 07:56:46;;;;;;;12.60;3.20;;;;;;;;;;6108204;23;20017;-89
2023/12/30 07:59:13;;;;;;;7.40;2.63;;;;;;;;;;6133223;23;20391;-87
2023/12/30 08:01:48;;;;;;;9.25;2.70;;;;;;;;;;6108537;23;20068;-89
2023/12/30 08:04:20;;;;;;;14.52;4.00;;;;;;;;;;6107881;23;20152;-88
2023/12/30 08:06:46;;;;;;;12.20;2.72;;;;;;;;;;6108017;23;20036;-89
2023/12/30 08:09:26;;;;;;;11.35;2.83;;;;;;;;;;6109174;23;20100;-89
2023/12/30 08:11:55;;;;;;;9.95;2.55;;;;;;;;;;6108267;23;20075;-89
2023/12/30 08:14:24;;;;;;;9.93;2.50;;;;;;;;;;6107975;23;20014;-89
2023/12/30 08:16:53;;;;;;;14.07;2.50;;;;;;;;;;6108132;23;20108;-88
2023/12/30 08:19:19;;;;;;;11.63;3.30;;;;;;;;;;6108376;23;20024;-88
2023/12/30 08:21:51;;;;;;;10.30;2.60;;;;;;;;;;6108531;23;20474;-88
2023/12/30 08:24:20;;;;;;;8.40;2.67;;;;;;;;;;6108880;23;20033;-88
2023/12/30 08:26:52;;;;;;;11.23;3.00;;;;;;;;;;6108505;23;20435;-89
2023/12/30 08:29:18;;;;;;;10.98;3.33;;;;;;;;;;6107857;23;20042;-87
2023/12/30 08:31:47;;;;;;;11.77;3.20;;;;;;;;;;6108653;23;20013;-88
2023/12/30 08:34:16;;;;;;;8.38;2.83;;;;;;;;;;6110254;23;20141;-87
2023/12/30 08:36:46;;;;;;;10.48;2.67;;;;;;;;;;6108326;23;20018;-89
2023/12/30 08:39:14;;;;;;;15.40;3.58;;;;;;;;;;6111530;23;20025;-88
2023/12/30 08:41:47;;;;;;;12.43;2.90;;;;;;;;;;6109339;23;20465;-88
2023/12/30 08:44:13;;;;;;;8.68;2.80;;;;;;;;;;6110054;23;20026;-89
2023/12/30 08:46:39;;;;;;;15.90;2.95;;;;;;;;;;6108923;23;20386;-87
2023/12/30 08:49:15;;;;;;;11.60;2.85;;;;;;;;;;6107908;23;20044;-89
2023/12/30 08:51:41;;;;;;;11.30;3.13;;;;;;;;;;6105131;23;20021;-86
2023/12/30 08:54:10;;;;;;;13.90;3.85;;;;;;;;;;6106115;23;20021;-85
2023/12/30 08:56:37;;;;;;;9.10;2.72;;;;;;;;;;6105593;23;20049;-85
2023/12/30 08:59:03;;;;;;;8.50;2.60;;;;;;;;;;6105448;23;20025;-86
2023/12/30 09:01:30;;;;;;;10.43;2.80;;;;;;;;;;6105155;23;20013;-85
2023/12/30 09:19:00;;;;;;;13.82;2.78;;;;;;;;;;5952059;24;20035;-86
2023/12/30 09:22:17;;;;;;;;;;;;;;;;;;;;;
2023/12/30 09:25:03;;;;;;;7.40;2.65;;;;;;;;;;5914068;24;20028;-86
2023/12/30 09:31:15;;;;;;;12.10;3.30;;;;;;;;;;5980055;24;20027;-86
2023/12/30 09:34:38;;;;;;;7.53;2.78;;;;;;;;;;6017887;23;20495;-86
2023/12/30 09:37:11;;;;;;;11.50;3.15;;;;;;;;;;6069792;23;20325;-86
2023/12/30 09:46:15;;;;;;;8.20;3.03;;;;;;;;;;5980416;23;20011;-86
2023/12/30 10:28:09;;;;;;;13.75;2.85;;;;;;;;;;6156359;23;20083;-86
2023/12/30 10:45:30;;;;;;;7.45;2.80;;;;;;;;;;5900289;24;20389;-85
2023/12/30 10:48:02;;;;;;;10.13;3.00;;;;;;;;;;5981686;24;20035;-85
2023/12/30 10:50:38;;;;;;;9.23;2.53;;;;;;;;;;5957382;24;20020;-85
2023/12/30 11:00:48;;;;;;;;;;;;;;;;;;;;;
2023/12/30 11:03:36;;;;;;;11.27;2.85;;;;;;;;;;5893822;24;20057;-86
2023/12/30 11:06:46;;;;;;;10.98;3.95;;;;;;;;;;5798863;24;20103;-84
2023/12/30 11:09:18;;;;;;;7.60;2.67;;;;;;;;;;5853888;24;20055;-85
2023/12/30 11:12:05;;;;;;;8.27;2.30;;;;;;;;;;5941170;24;20080;-85
2023/12/30 11:14:50;;;;;;;13.02;2.67;;;;;;;;;;6076145;23;20021;-85
2023/12/30 11:17:47;;;;;;;7.25;2.40;;;;;;;;;;6106526;23;20025;-85
2023/12/30 11:20:39;;;;;;;9.73;2.25;;;;;;;;;;6105526;23;20029;-84
2023/12/30 11:23:51;;;;;;;8.88;2.60;;;;;;;;;;6134124;23;20454;-85
2023/12/30 11:26:19;;;;;;;8.23;2.28;;;;;;;;;;6104184;23;20026;-85
2023/12/30 11:28:48;;;;;;;14.30;2.63;;;;;;;;;;6106064;23;20175;-85
2023/12/30 11:31:30;;;;;;;9.65;2.60;;;;;;;;;;6107370;23;20410;-85
2023/12/30 11:34:19;;;;;;;8.00;2.30;;;;;;;;;;6106811;23;20347;-86
2023/12/30 11:36:48;;;;;;;7.38;2.70;;;;;;;;;;6104988;23;20406;-86
2023/12/30 11:39:30;;;;;;;9.13;2.75;;;;;;;;;;6107284;23;20457;-86
2023/12/30 11:41:57;;;;;;;9.73;2.50;;;;;;;;;;6106269;23;20017;-85
2023/12/30 11:44:27;;;;;;;8.23;2.78;;;;;;;;;;6106198;23;20072;-86
2023/12/30 11:53:49;;;;;;;8.43;3.10;;;;;;;;;;6126357;23;20405;-85
2023/12/30 11:56:46;;;;;;;10.55;3.05;;;;;;;;;;6102659;23;20100;-86
2023/12/30 12:03:07;;;;;;;13.65;2.95;;;;;;;;;;5978548;23;20052;-85
2023/12/30 12:09:40;;;;;;;9.20;2.63;;;;;;;;;;6129931;23;20028;-85
2023/12/30 12:20:04;;;;;;;;;;;;;;;;;;;;;
2023/12/30 12:26:25;;;;;;;12.05;3.15;;;;;;;;;;6158124;23;20038;-86
2023/12/30 12:29:07;;;;;;;;;;;;;;;;;;;;;
2023/12/30 12:32:07;;;;;;;11.00;3.65;;;;;;;;;;6130467;23;20024;-85
2023/12/30 12:34:58;;;;;;;6.80;3.00;;;;;;;;;;6106773;23;20100;-85
2023/12/30 12:37:48;;;;;;;9.57;3.30;;;;;;;;;;6108275;23;20018;-86
2023/12/30 12:40:19;;;;;;;12.50;3.95;;;;;;;;;;6107250;23;20025;-85
2023/12/30 12:42:58;;;;;;;8.90;2.72;;;;;;;;;;6109075;23;20351;-85
2023/12/30 12:45:42;;;;;;;6.40;2.58;;;;;;;;;;6104816;23;20021;-85
2023/12/30 12:48:15;;;;;;;6.75;2.42;;;;;;;;;;6106986;23;20172;-85
2023/12/30 12:51:00;;;;;;;;;;;;;;;;;;;;;
2023/12/30 12:53:41;;;;;;;11.15;2.60;;;;;;;;;;6065563;23;20404;-85
2023/12/30 12:56:33;;;;;;;7.32;2.50;;;;;;;;;;6017542;23;20069;-85
2023/12/30 12:59:22;;;;;;;6.50;2.83;;;;;;;;;;6019176;23;20342;-85
2023/12/30 13:02:26;;;;;;;9.48;2.45;;;;;;;;;;6037532;23;20491;-85
2023/12/30 13:04:57;;;;;;;9.50;2.20;;;;;;;;;;6017036;23;20523;-85
2023/12/30 13:07:23;;;;;;;6.97;2.17;;;;;;;;;;6017668;23;20478;-84
2023/12/30 13:09:59;;;;;;;9.73;2.78;;;;;;;;;;6041314;23;20023;-85
2023/12/30 13:12:26;;;;;;;8.68;2.45;;;;;;;;;;6042179;23;20059;-84
2023/12/30 13:14:52;;;;;;;8.07;2.55;;;;;;;;;;6040755;23;20112;-84
2023/12/30 13:17:19;;;;;;;7.47;2.92;;;;;;;;;;6065350;23;20523;-86
2023/12/30 13:19:45;;;;;;;7.63;3.05;;;;;;;;;;6041479;23;20085;-86
2023/12/30 13:22:22;;;;;;;7.28;3.10;;;;;;;;;;6041620;23;20026;-87
2023/12/30 13:24:49;;;;;;;8.90;2.88;;;;;;;;;;6093892;23;20462;-85
2023/12/30 13:27:15;;;;;;;11.63;4.15;;;;;;;;;;6129022;23;20355;-85
2023/12/30 13:29:44;;;;;;;9.07;2.72;;;;;;;;;;6129295;23;20029;-84
2023/12/30 13:32:12;;;;;;;10.95;3.08;;;;;;;;;;6129899;23;20017;-85
2023/12/30 13:34:40;;;;;;;7.05;2.40;;;;;;;;;;6129267;23;20021;-84
2023/12/30 13:37:06;;;;;;;9.73;2.85;;;;;;;;;;6129147;23;20021;-85
2023/12/30 13:39:39;;;;;;;4.38;2.65;;;;;;;;;;6129322;23;20411;-85
2023/12/30 13:42:09;;;;;;;7.20;2.30;;;;;;;;;;6129345;23;20045;-83
2023/12/30 13:44:43;;;;;;;10.35;2.58;;;;;;;;;;6129015;23;20053;-83
2023/12/30 13:47:39;;;;;;;9.70;2.60;;;;;;;;;;6129104;23;20091;-84
2023/12/30 13:50:21;;;;;;;9.50;3.07;;;;;;;;;;6104708;23;20021;-84
2023/12/30 13:52:50;;;;;;;8.60;2.40;;;;;;;;;;6129686;23;20026;-86
2023/12/30 13:55:18;;;;;;;8.63;2.58;;;;;;;;;;6129059;23;20021;-86
2023/12/30 13:57:45;;;;;;;8.65;2.92;;;;;;;;;;6129505;23;20396;-85
2023/12/30 14:00:19;;;;;;;8.88;2.33;;;;;;;;;;6127031;23;20029;-85
2023/12/30 14:02:48;;;;;;;8.52;2.90;;;;;;;;;;6103493;23;20044;-85
2023/12/30 14:05:20;;;;;;;7.82;2.40;;;;;;;;;;6127979;23;20020;-85
2023/12/30 14:07:46;;;;;;;6.95;2.30;;;;;;;;;;6103358;23;20470;-85
2023/12/30 14:10:17;;;;;;;8.00;2.72;;;;;;;;;;6103212;23;20021;-86
2023/12/30 14:12:44;;;;;;;8.50;2.55;;;;;;;;;;6103281;23;20018;-85
2023/12/30 14:15:15;;;;;;;6.75;2.88;;;;;;;;;;6102954;23;20368;-84
2023/12/30 14:17:42;;;;;;;7.57;2.75;;;;;;;;;;6126977;23;20045;-83
2023/12/30 14:20:10;;;;;;;16.08;3.75;;;;;;;;;;6102217;23;20017;-84
2023/12/30 14:22:41;;;;;;;8.27;2.75;;;;;;;;;;6102554;23;20024;-85
2023/12/30 14:25:11;;;;;;;10.77;3.05;;;;;;;;;;6102647;23;20068;-84
2023/12/30 14:27:38;;;;;;;14.95;3.63;;;;;;;;;;6103071;23;20354;-84
2023/12/30 14:30:05;;;;;;;8.40;3.13;;;;;;;;;;6103229;23;20342;-82
2023/12/30 14:32:32;;;;;;;8.45;2.92;;;;;;;;;;6103392;23;20014;-83
2023/12/30 14:34:58;;;;;;;10.60;3.30;;;;;;;;;;6102920;23;20017;-83
2023/12/30 14:37:24;;;;;;;8.10;3.22;;;;;;;;;;6102604;23;20017;-84
2023/12/30 14:39:50;;;;;;;12.82;4.15;;;;;;;;;;6128287;23;20028;-84
2023/12/30 14:42:24;;;;;;;10.02;3.50;;;;;;;;;;6106213;23;20028;-85
2023/12/30 14:44:50;;;;;;;18.60;4.80;;;;;;;;;;6106819;23;20021;-85
2023/12/30 14:47:17;;;;;;;16.92;3.90;;;;;;;;;;6106630;23;20018;-85
2023/12/30 14:49:43;;;;;;;11.32;3.63;;;;;;;;;;6106847;23;20018;-85
2023/12/30 14:52:09;;;;;;;18.52;5.13;;;;;;;;;;6106455;23;20390;-84
2023/12/30 14:54:37;;;;;;;9.80;3.85;;;;;;;;;;6107021;23;20114;-85
2023/12/30 14:57:06;;;;;;;12.77;3.50;;;;;;;;;;6105905;23;20104;-85
2023/12/30 14:59:32;;;;;;;12.45;3.55;;;;;;;;;;6106213;23;20096;-85
2023/12/30 15:01:58;;;;;;;12.30;3.35;;;;;;;;;;6105928;23;20087;-84
2023/12/30 15:04:24;;;;;;;13.18;3.97;;;;;;;;;;6105682;23;20018;-85
2023/12/30 15:06:51;;;;;;;12.95;4.90;;;;;;;;;;6129970;23;20032;-85
2023/12/30 15:09:17;;;;;;;15.63;4.90;;;;;;;;;;6130133;23;20354;-85
2023/12/30 15:11:43;;;;;;;13.68;4.57;;;;;;;;;;6105624;23;20022;-84
2023/12/30 15:14:09;;;;;;;11.60;4.00;;;;;;;;;;6105580;23;20022;-85
2023/12/30 15:16:36;;;;;;;15.65;5.18;;;;;;;;;;6130307;23;20075;-85
2023/12/30 15:19:05;;;;;;;19.60;5.25;;;;;;;;;;6105902;23;20461;-85
2023/12/30 15:21:31;;;;;;;11.50;4.72;;;;;;;;;;6105622;23;20071;-85
2023/12/30 15:23:59;;;;;;;14.77;5.43;;;;;;;;;;6105816;23;20355;-85
2023/12/30 15:26:25;;;;;;;19.95;5.55;;;;;;;;;;6105917;23;20096;-86
2023/12/30 15:28:51;;;;;;;12.75;5.28;;;;;;;;;;6130835;23;20049;-87
2023/12/30 15:31:20;;;;;;;15.95;6.45;;;;;;;;;;6157398;23;20025;-87
2023/12/30 15:33:49;;;;;;;21.35;5.72;;;;;;;;;;6107120;23;20025;-86
2023/12/30 15:36:15;;;;;;;14.20;6.00;;;;;;;;;;6106561;23;20097;-88
2023/12/30 15:38:42;;;;;;;20.05;5.90;;;;;;;;;;6107624;23;20044;-86
2023/12/30 15:41:08;;;;;;;16.48;5.97;;;;;;;;;;6106586;23;20104;-86
2023/12/30 15:44:15;;;;;;;16.58;5.18;;;;;;;;;;6106323;23;20020;-87
2023/12/30 15:55:00;;;;;;;;;;;;;;;;;;;;;
2023/12/30 15:58:24;;;;;;;;;;;;;;;;;;;;;
2023/12/30 16:12:06;;;;;;;;;;;;;;;;;;;;;
2023/12/30 16:33:44;;;;;;;;;;;;;;;;;;;;;
2023/12/30 16:56:34;;;;;;;;;;;;;;;;;;;;;
2023/12/30 17:06:32;;;;;;;;;;;;;;;;;;;;;
2023/12/30 17:09:26;;;;;;;;;;;;;;;;;;;;;
2023/12/30 17:12:16;;;;;;;27.15;14.75;;;;;;;;;;5829040;24;20135;-87
2023/12/30 17:14:44;;;;;;;32.28;15.35;;;;;;;;;;6010578;23;20549;-86
2023/12/30 17:17:11;;;;;;;31.65;15.10;;;;;;;;;;6026867;23;20074;-87
2023/12/30 17:19:40;;;;;;;22.83;14.55;;;;;;;;;;6046707;23;20602;-86
2023/12/30 17:22:10;;;;;;;31.30;17.33;;;;;;;;;;6072375;23;20017;-87
2023/12/30 17:24:41;;;;;;;30.35;15.32;;;;;;;;;;6105536;23;20025;-87
2023/12/30 17:27:07;;;;;;;26.50;14.98;;;;;;;;;;6104711;23;20067;-86
2023/12/30 17:29:33;;;;;;;37.35;17.15;;;;;;;;;;6105665;23;20021;-86
2023/12/30 17:32:04;;;;;;;30.90;17.40;;;;;;;;;;6105751;23;20018;-87
2023/12/30 17:34:34;;;;;;;25.02;14.18;;;;;;;;;;6105759;23;20040;-86
2023/12/30 17:37:10;;;;;;;29.70;14.75;;;;;;;;;;6107683;23;20327;-86
2023/12/30 17:39:40;;;;;;;27.52;14.45;;;;;;;;;;6108531;23;20022;-87
2023/12/30 17:42:06;;;;;;;21.27;13.32;;;;;;;;;;6107838;23;20017;-85
2023/12/30 17:44:38;;;;;;;24.23;12.43;;;;;;;;;;6108096;23;20029;-87
2023/12/30 17:47:04;;;;;;;24.95;11.75;;;;;;;;;;6107551;23;20427;-85
2023/12/30 17:49:31;;;;;;;25.13;12.23;;;;;;;;;;6106987;23;20018;-86
2023/12/30 17:51:57;;;;;;;21.10;11.95;;;;;;;;;;6107051;23;20024;-85
2023/12/30 17:54:23;;;;;;;20.90;12.38;;;;;;;;;;6107242;23;20026;-86
2023/12/30 17:56:49;;;;;;;25.88;12.10;;;;;;;;;;6136437;23;20397;-87
2023/12/30 17:59:15;;;;;;;19.95;10.07;;;;;;;;;;6135957;23;20104;-86
2023/12/30 18:02:01;;;;;;;20.17;10.85;;;;;;;;;;6136046;23;20076;-88